Time;durP1;ratioP1;P1;durP2;ratioP2;P2;SDS_P1;SDS_P2;PMS_P1;PMS_P2;Temp;Humidity;BMP_temperature;BMP_pressure;BME280_temperature;BME280_humidity;BME280_pressure;Samples;Min_cycle;Max_cycle;Signal;HPM_P1;HPM_P2
2022/10/18 00:02:12;;;;;;;27.80;15.00;;;12.70;99.90;;;;;;7378631;19;20018;-47
2022/10/18 00:04:38;;;;;;;52.83;21.52;;;12.70;99.90;;;;;;7376951;19;20018;-47
2022/10/18 00:07:04;;;;;;;57.00;20.98;;;12.60;99.90;;;;;;7378649;19;20039;-45
2022/10/18 00:09:31;;;;;;;38.15;21.33;;;12.50;99.90;;;;;;7376501;19;20014;-45
2022/10/18 00:11:57;;;;;;;49.50;22.25;;;12.50;99.90;;;;;;7376819;19;20021;-44
2022/10/18 00:14:23;;;;;;;66.82;22.17;;;12.50;99.90;;;;;;7370839;19;20090;-47
2022/10/18 00:16:49;;;;;;;110.25;26.80;;;12.50;99.90;;;;;;7378406;19;20566;-45
2022/10/18 00:19:15;;;;;;;124.22;24.65;;;12.50;99.90;;;;;;7377492;19;20035;-44
2022/10/18 00:21:42;;;;;;;88.18;27.05;;;12.50;99.90;;;;;;7377052;19;20021;-45
2022/10/18 00:24:08;;;;;;;61.03;24.02;;;12.60;99.90;;;;;;7373446;19;20047;-46
2022/10/18 00:26:35;;;;;;;81.47;22.27;;;12.60;99.90;;;;;;7366831;19;20020;-46
2022/10/18 00:29:04;;;;;;;88.53;20.63;;;12.50;99.90;;;;;;7376391;19;20537;-46
2022/10/18 00:31:33;;;;;;;170.15;26.88;;;12.50;99.90;;;;;;7375659;19;20014;-47
2022/10/18 00:34:02;;;;;;;77.70;21.58;;;12.40;99.90;;;;;;7377352;19;20046;-46
2022/10/18 00:36:30;;;;;;;58.47;19.65;;;12.40;99.90;;;;;;7368216;19;20021;-48
2022/10/18 00:38:56;;;;;;;74.88;24.38;;;12.40;99.90;;;;;;7372864;19;20431;-45
2022/10/18 00:41:26;;;;;;;56.83;17.40;;;12.40;99.90;;;;;;7371955;19;20032;-46
2022/10/18 00:43:52;;;;;;;55.63;21.00;;;12.30;99.90;;;;;;7373675;19;20419;-48
2022/10/18 00:46:18;;;;;;;69.68;20.52;;;12.30;99.90;;;;;;7374453;19;20035;-45
2022/10/18 00:48:45;;;;;;;96.78;20.55;;;12.20;99.90;;;;;;7370451;19;20076;-46
2022/10/18 00:51:11;;;;;;;70.72;23.80;;;12.30;99.90;;;;;;7373089;19;21124;-45
2022/10/18 00:53:39;;;;;;;79.15;24.70;;;12.30;99.90;;;;;;7376315;19;20010;-45
2022/10/18 00:56:05;;;;;;;38.45;18.63;;;12.20;99.90;;;;;;7365355;19;20032;-45
2022/10/18 00:58:32;;;;;;;104.20;25.58;;;12.20;99.90;;;;;;7359858;19;20029;-46
2022/10/18 01:00:58;;;;;;;73.85;22.38;;;12.20;99.90;;;;;;7372163;19;20022;-46
2022/10/18 01:03:24;;;;;;;69.18;21.75;;;12.20;99.90;;;;;;7375912;19;20479;-47
2022/10/18 01:05:51;;;;;;;85.00;21.27;;;12.30;99.90;;;;;;7373655;19;20022;-48
2022/10/18 01:08:55;;;;;;;77.68;24.33;;;12.20;99.90;;;;;;7376473;19;20023;-48
2022/10/18 01:11:47;;;;;;;100.50;27.38;;;12.20;99.90;;;;;;7374828;19;20032;-46
2022/10/18 01:14:26;;;;;;;89.15;26.30;;;12.30;99.90;;;;;;7374937;19;20096;-49
2022/10/18 01:17:00;;;;;;;84.32;27.50;;;12.20;99.90;;;;;;7371234;19;20845;-47
2022/10/18 01:19:58;;;;;;;71.30;27.58;;;12.20;99.90;;;;;;7373130;19;20482;-49
2022/10/18 01:22:35;;;;;;;101.13;26.70;;;12.30;99.90;;;;;;7375203;19;20022;-45
2022/10/18 01:25:24;;;;;;;47.38;22.70;;;12.20;99.90;;;;;;7375489;19;20029;-46
2022/10/18 01:28:06;;;;;;;65.25;23.23;;;12.10;99.90;;;;;;7372891;19;20369;-47
2022/10/18 01:30:40;;;;;;;70.13;25.52;;;12.10;99.90;;;;;;7375313;19;20018;-45
2022/10/18 01:33:25;;;;;;;82.28;25.45;;;12.10;99.90;;;;;;7373843;19;20021;-45
2022/10/18 01:36:07;;;;;;;76.50;22.90;;;12.10;99.90;;;;;;7371654;19;20414;-46
2022/10/18 01:38:37;;;;;;;56.42;21.90;;;12.00;99.90;;;;;;7374968;19;20366;-48
2022/10/18 01:41:05;;;;;;;150.32;31.02;;;12.10;99.90;;;;;;7373934;19;20089;-47
2022/10/18 01:43:34;;;;;;;100.70;22.88;;;12.00;99.90;;;;;;7370980;19;20569;-46
2022/10/18 01:46:03;;;;;;;115.88;26.90;;;12.00;99.90;;;;;;7372494;19;20019;-45
2022/10/18 01:48:30;;;;;;;92.22;20.23;;;11.90;99.90;;;;;;7369535;19;20019;-45
2022/10/18 01:50:57;;;;;;;82.43;23.58;;;11.90;99.90;;;;;;7373957;19;20086;-45
2022/10/18 01:53:32;;;;;;;72.43;21.73;;;11.90;99.90;;;;;;7371611;19;20018;-46
2022/10/18 01:56:08;;;;;;;113.57;25.30;;;11.90;99.90;;;;;;7370140;19;20651;-50
2022/10/18 01:58:56;;;;;;;27.30;17.70;;;11.90;99.90;;;;;;7374418;19;20342;-46
2022/10/18 02:01:26;;;;;;;;;;;11.80;99.90;;;;;;7371801;19;20907;-45
2022/10/18 02:03:57;;;;;;;71.60;20.25;;;11.80;99.90;;;;;;7365944;19;20347;-45
2022/10/18 02:06:30;;;;;;;119.05;28.90;;;11.80;99.90;;;;;;7369309;19;20364;-47
2022/10/18 02:09:18;;;;;;;63.35;22.77;;;11.80;99.90;;;;;;7372417;19;20018;-46
2022/10/18 02:11:48;;;;;;;73.40;23.75;;;11.80;99.90;;;;;;7374544;19;20014;-46
2022/10/18 02:14:17;;;;;;;40.22;18.83;;;11.80;99.90;;;;;;7370664;19;20026;-46
2022/10/18 02:16:57;;;;;;;37.20;19.27;;;11.70;99.90;;;;;;7371677;19;20018;-47
2022/10/18 02:19:32;;;;;;;75.78;21.00;;;11.70;99.90;;;;;;7373115;19;20090;-46
2022/10/18 02:21:59;;;;;;;72.43;21.73;;;11.70;99.90;;;;;;7370487;19;20023;-50
2022/10/18 02:24:33;;;;;;;41.75;19.10;;;11.70;99.90;;;;;;7367981;19;20023;-44
2022/10/18 02:27:00;;;;;;;58.20;21.45;;;11.70;99.90;;;;;;7369931;19;20597;-47
2022/10/18 02:29:28;;;;;;;44.90;18.20;;;11.60;99.90;;;;;;7375234;19;20491;-45
2022/10/18 02:32:12;;;;;;;28.52;17.40;;;11.60;99.90;;;;;;7369280;19;20940;-46
2022/10/18 02:34:47;;;;;;;83.78;24.33;;;11.60;99.90;;;;;;7374112;19;20019;-45
2022/10/18 02:37:17;;;;;;;48.78;20.02;;;11.60;99.90;;;;;;7368022;19;20018;-46
2022/10/18 02:39:49;;;;;;;103.95;27.48;;;11.60;99.90;;;;;;7371412;19;20688;-44
2022/10/18 02:42:16;;;;;;;42.78;20.08;;;11.60;99.90;;;;;;7365090;19;20045;-44
2022/10/18 02:44:42;;;;;;;39.22;21.50;;;11.60;99.90;;;;;;7372052;19;20018;-45
2022/10/18 02:47:10;;;;;;;41.03;20.33;;;11.60;99.90;;;;;;7367824;19;20022;-49
2022/10/18 02:49:37;;;;;;;49.83;21.42;;;11.60;99.90;;;;;;7377350;19;20386;-46
2022/10/18 02:52:03;;;;;;;99.55;28.75;;;11.60;99.90;;;;;;7374712;19;20038;-46
2022/10/18 02:54:30;;;;;;;38.13;20.95;;;11.60;99.90;;;;;;7377061;19;20109;-44
2022/10/18 02:56:56;;;;;;;43.55;20.42;;;11.60;99.90;;;;;;7378160;19;20022;-46
2022/10/18 02:59:22;;;;;;;74.70;24.45;;;11.60;99.90;;;;;;7376793;19;20018;-46
2022/10/18 03:01:49;;;;;;;83.75;23.85;;;11.60;99.90;;;;;;7379484;19;20368;-45
2022/10/18 03:04:15;;;;;;;45.70;22.77;;;11.60;99.90;;;;;;7374525;19;20015;-46
2022/10/18 03:06:42;;;;;;;38.90;21.58;;;11.60;99.90;;;;;;7373118;19;20022;-43
2022/10/18 03:09:08;;;;;;;60.78;24.67;;;11.60;99.90;;;;;;7378511;19;20018;-44
2022/10/18 03:11:35;;;;;;;64.93;25.42;;;11.60;99.90;;;;;;7376365;19;20018;-47
2022/10/18 03:14:01;;;;;;;50.92;22.90;;;11.60;99.90;;;;;;7377518;19;20030;-44
2022/10/18 03:16:27;;;;;;;38.17;19.67;;;11.60;99.90;;;;;;7370626;19;20024;-47
2022/10/18 03:18:53;;;;;;;28.17;18.30;;;11.50;99.90;;;;;;7378411;19;20356;-44
2022/10/18 03:21:20;;;;;;;54.35;22.85;;;11.50;99.90;;;;;;7380152;19;20111;-45
2022/10/18 03:23:47;;;;;;;68.53;25.30;;;11.50;99.90;;;;;;7379095;19;20502;-44
2022/10/18 03:26:13;;;;;;;34.10;20.88;;;11.50;99.90;;;;;;7376671;19;20037;-46
2022/10/18 03:28:40;;;;;;;44.65;21.60;;;11.50;99.90;;;;;;7375305;19;20081;-49
2022/10/18 03:31:08;;;;;;;62.70;24.13;;;11.50;99.90;;;;;;7373951;19;20010;-45
2022/10/18 03:33:34;;;;;;;34.75;21.40;;;11.50;99.90;;;;;;7378320;19;20026;-43
2022/10/18 03:36:00;;;;;;;67.05;24.65;;;11.50;99.90;;;;;;7376091;19;20029;-46
2022/10/18 03:38:27;;;;;;;47.30;22.80;;;11.50;99.90;;;;;;7377914;19;20629;-44
2022/10/18 03:40:53;;;;;;;34.35;21.77;;;11.50;99.90;;;;;;7377664;19;20019;-45
2022/10/18 03:43:20;;;;;;;40.35;20.35;;;11.50;99.90;;;;;;7376770;19;20023;-47
2022/10/18 03:45:46;;;;;;;34.17;20.73;;;11.50;99.90;;;;;;7375211;19;20126;-45
2022/10/18 03:48:12;;;;;;;67.20;25.20;;;11.50;99.90;;;;;;7375464;19;20019;-44
2022/10/18 03:50:38;;;;;;;62.75;20.38;;;11.60;99.90;;;;;;7373121;19;20014;-48
2022/10/18 03:53:05;;;;;;;32.45;18.73;;;11.60;99.90;;;;;;7376587;19;20018;-44
2022/10/18 03:55:32;;;;;;;63.53;19.80;;;11.60;99.90;;;;;;7376874;19;20620;-45
2022/10/18 03:57:58;;;;;;;55.33;20.83;;;11.60;99.90;;;;;;7373341;19;20023;-44
2022/10/18 04:00:24;;;;;;;65.72;20.13;;;11.60;99.90;;;;;;7375495;19;20060;-47
2022/10/18 04:02:53;;;;;;;71.05;21.52;;;11.60;99.90;;;;;;7374812;19;20034;-49
2022/10/18 04:05:19;;;;;;;50.08;19.92;;;11.60;99.90;;;;;;7374943;19;20554;-44
2022/10/18 04:07:46;;;;;;;71.95;22.05;;;11.60;99.90;;;;;;7375216;19;20104;-49
2022/10/18 04:10:12;;;;;;;42.20;20.40;;;11.60;99.90;;;;;;7376610;19;20018;-49
2022/10/18 04:12:38;;;;;;;51.05;20.65;;;11.70;99.90;;;;;;7372976;19;20051;-45
2022/10/18 04:15:05;;;;;;;56.38;21.58;;;11.70;99.90;;;;;;7372259;19;20353;-48
2022/10/18 04:17:31;;;;;;;44.33;21.55;;;11.70;99.90;;;;;;7374676;19;20022;-45
2022/10/18 04:19:57;;;;;;;136.10;27.17;;;11.70;99.90;;;;;;7375002;19;20462;-45
2022/10/18 04:22:24;;;;;;;52.58;21.25;;;11.70;99.90;;;;;;7372273;19;20019;-47
2022/10/18 04:24:52;;;;;;;83.57;23.52;;;11.70;99.90;;;;;;7374507;19;20025;-45
2022/10/18 04:27:18;;;;;;;104.45;24.88;;;11.70;99.90;;;;;;7373204;19;20022;-44
2022/10/18 04:29:45;;;;;;;64.53;21.33;;;11.70;99.90;;;;;;7378207;19;20185;-47
2022/10/18 04:32:12;;;;;;;94.55;22.67;;;11.80;99.90;;;;;;7373287;19;20565;-47
2022/10/18 04:34:38;;;;;;;75.70;22.90;;;11.80;99.90;;;;;;7373893;19;20086;-49
2022/10/18 04:37:04;;;;;;;128.45;25.45;;;11.70;99.90;;;;;;7375862;19;21103;-48
2022/10/18 04:39:31;;;;;;;65.70;20.88;;;11.70;99.90;;;;;;7379060;19;20039;-45
2022/10/18 04:41:57;;;;;;;79.82;22.73;;;11.70;99.90;;;;;;7375785;19;20359;-48
2022/10/18 04:44:23;;;;;;;84.82;21.98;;;11.70;99.90;;;;;;7375091;19;20443;-48
2022/10/18 04:46:49;;;;;;;63.22;20.65;;;11.80;99.90;;;;;;7372497;19;20022;-50
2022/10/18 04:49:16;;;;;;;51.78;20.48;;;11.80;99.90;;;;;;7373511;19;20345;-44
2022/10/18 04:51:42;;;;;;;57.45;20.25;;;11.80;99.90;;;;;;7376629;19;20470;-48
2022/10/18 04:54:08;;;;;;;84.20;22.25;;;11.70;99.90;;;;;;7370429;19;20018;-50
2022/10/18 04:56:34;;;;;;;56.20;19.85;;;11.70;99.90;;;;;;7374011;19;20497;-44
2022/10/18 04:59:00;;;;;;;120.18;25.60;;;11.70;99.90;;;;;;7374772;19;20018;-46
2022/10/18 05:01:27;;;;;;;43.92;20.02;;;11.70;99.90;;;;;;7373579;19;20885;-48
2022/10/18 05:03:54;;;;;;;103.40;24.70;;;11.70;99.90;;;;;;7371163;19;20798;-49
2022/10/18 05:06:21;;;;;;;56.88;21.10;;;11.70;99.90;;;;;;7375292;19;20482;-48
2022/10/18 05:08:47;;;;;;;47.72;21.38;;;11.70;99.90;;;;;;7368522;19;20581;-46
2022/10/18 05:11:17;;;;;;;40.45;20.63;;;11.70;99.90;;;;;;7370555;19;20497;-48
2022/10/18 05:13:43;;;;;;;59.80;23.90;;;11.70;99.90;;;;;;7363711;19;20034;-47
2022/10/18 05:16:10;;;;;;;49.15;23.17;;;11.70;99.90;;;;;;7363338;19;20502;-45
2022/10/18 05:18:36;;;;;;;71.63;22.45;;;11.70;99.90;;;;;;7363372;19;20043;-47
2022/10/18 05:21:03;;;;;;;68.40;22.80;;;11.70;99.90;;;;;;7359951;19;20019;-48
2022/10/18 05:23:29;;;;;;;68.75;21.73;;;11.70;99.90;;;;;;7365547;19;20010;-47
2022/10/18 05:26:01;;;;;;;67.47;23.75;;;11.70;99.90;;;;;;7370216;19;20055;-48
2022/10/18 05:28:27;;;;;;;103.82;25.60;;;11.70;99.90;;;;;;7373283;19;20022;-48
2022/10/18 05:30:53;;;;;;;127.30;26.30;;;11.70;99.90;;;;;;7374518;19;20038;-47
2022/10/18 05:33:21;;;;;;;148.98;29.35;;;11.70;99.90;;;;;;7374627;19;20105;-47
2022/10/18 05:35:47;;;;;;;130.70;26.65;;;11.70;99.90;;;;;;7372319;19;20047;-45
2022/10/18 05:38:13;;;;;;;59.08;23.90;;;11.60;99.90;;;;;;7369245;19;20477;-48
2022/10/18 05:40:39;;;;;;;91.05;28.42;;;11.60;99.90;;;;;;7369875;19;20018;-47
2022/10/18 05:43:05;;;;;;;96.50;28.65;;;11.60;99.90;;;;;;7372268;19;20413;-45
2022/10/18 05:45:32;;;;;;;75.05;26.38;;;11.60;99.90;;;;;;7375280;19;20014;-46
2022/10/18 05:47:58;;;;;;;102.38;28.02;;;11.60;99.90;;;;;;7370473;19;20548;-47
2022/10/18 05:50:24;;;;;;;62.95;24.27;;;11.60;99.90;;;;;;7370072;19;20039;-45
2022/10/18 05:52:55;;;;;;;66.50;20.35;;;11.60;99.90;;;;;;7372728;19;20018;-48
2022/10/18 05:55:22;;;;;;;101.93;24.37;;;11.60;99.90;;;;;;7374156;19;20364;-49
2022/10/18 05:57:49;;;;;;;59.63;20.85;;;11.60;99.90;;;;;;7372386;19;20370;-46
2022/10/18 06:00:19;;;;;;;81.82;23.48;;;11.60;99.90;;;;;;7375518;19;20010;-44
2022/10/18 06:02:45;;;;;;;50.67;20.17;;;11.60;99.90;;;;;;7375001;19;20022;-44
2022/10/18 06:05:12;;;;;;;137.75;26.02;;;11.60;99.90;;;;;;7372642;19;20023;-47
2022/10/18 06:07:38;;;;;;;70.68;21.98;;;11.60;99.90;;;;;;7371791;19;20529;-49
2022/10/18 06:10:05;;;;;;;68.32;21.35;;;11.60;99.90;;;;;;7370690;19;20110;-46
2022/10/18 06:12:31;;;;;;;47.40;19.88;;;11.60;99.90;;;;;;7372138;19;20021;-48
2022/10/18 06:14:58;;;;;;;68.28;22.33;;;11.50;99.90;;;;;;7372205;19;20018;-47
2022/10/18 06:17:24;;;;;;;83.30;21.08;;;11.60;99.90;;;;;;7369636;19;20102;-46
2022/10/18 06:19:50;;;;;;;53.83;17.83;;;11.50;99.90;;;;;;7372262;19;20049;-45
2022/10/18 06:22:17;;;;;;;50.25;18.15;;;11.50;99.90;;;;;;7372586;19;20489;-44
2022/10/18 06:24:43;;;;;;;51.63;18.27;;;11.50;99.90;;;;;;7379654;19;20026;-45
2022/10/18 06:27:10;;;;;;;67.18;21.35;;;11.40;99.90;;;;;;7378094;19;21275;-50
2022/10/18 06:29:38;;;;;;;80.32;24.55;;;11.40;99.90;;;;;;7370002;19;20026;-48
2022/10/18 06:32:06;;;;;;;56.80;17.70;;;11.40;99.90;;;;;;7374894;19;20022;-45
2022/10/18 06:34:33;;;;;;;47.65;16.58;;;11.40;99.90;;;;;;7366671;19;20277;-45
2022/10/18 06:37:00;;;;;;;59.70;19.67;;;11.40;99.90;;;;;;7373139;19;20014;-47
2022/10/18 06:39:26;;;;;;;50.65;18.98;;;11.40;99.90;;;;;;7377126;19;20466;-49
2022/10/18 06:41:53;;;;;;;70.40;17.23;;;11.30;99.90;;;;;;7371730;19;20760;-47
2022/10/18 06:44:20;;;;;;;59.05;17.27;;;11.30;99.90;;;;;;7375515;19;20090;-46
2022/10/18 06:46:48;;;;;;;47.53;17.85;;;11.30;99.90;;;;;;7371763;19;20014;-45
2022/10/18 06:49:18;;;;;;;44.40;16.73;;;11.30;99.90;;;;;;7370697;19;20261;-45
2022/10/18 06:51:48;;;;;;;53.17;16.98;;;11.30;99.90;;;;;;7374923;19;20792;-47
2022/10/18 06:54:15;;;;;;;36.90;14.38;;;11.30;99.90;;;;;;7375036;19;20085;-48
2022/10/18 06:56:41;;;;;;;30.52;12.95;;;11.20;99.90;;;;;;7375105;19;20052;-48
2022/10/18 06:59:12;;;;;;;28.17;13.95;;;11.20;99.90;;;;;;7374028;19;20388;-46
2022/10/18 07:01:38;;;;;;;39.97;14.52;;;11.20;99.90;;;;;;7375631;19;20026;-45
2022/10/18 07:04:05;;;;;;;32.25;12.30;;;11.20;99.90;;;;;;7369517;19;20119;-44
2022/10/18 07:06:31;;;;;;;23.98;12.15;;;11.20;99.90;;;;;;7369317;19;20010;-45
2022/10/18 07:08:59;;;;;;;25.63;13.48;;;11.20;99.90;;;;;;7371987;19;20022;-47
2022/10/18 07:11:26;;;;;;;26.98;12.20;;;11.20;99.90;;;;;;7371478;19;20018;-47
2022/10/18 07:13:59;;;;;;;16.10;10.70;;;11.30;99.90;;;;;;7372545;19;20058;-50
2022/10/18 07:16:25;;;;;;;12.43;10.60;;;11.20;99.90;;;;;;7375967;19;20018;-49
2022/10/18 07:18:52;;;;;;;25.13;10.95;;;11.20;99.90;;;;;;7370743;19;20019;-46
2022/10/18 07:21:23;;;;;;;24.05;12.10;;;11.20;99.90;;;;;;7374120;19;20022;-44
2022/10/18 07:23:51;;;;;;;25.90;11.73;;;11.30;99.90;;;;;;7375782;19;20022;-50
2022/10/18 07:26:29;;;;;;;19.83;10.40;;;11.40;99.90;;;;;;7369332;19;20026;-45
2022/10/18 07:29:09;;;;;;;18.58;9.25;;;11.50;99.90;;;;;;7371399;19;20490;-46
2022/10/18 07:31:37;;;;;;;35.92;11.30;;;11.50;99.90;;;;;;7371342;19;20090;-47
2022/10/18 07:34:05;;;;;;;31.65;9.75;;;11.60;99.90;;;;;;7364617;19;20433;-45
2022/10/18 07:36:32;;;;;;;29.83;11.02;;;11.70;99.90;;;;;;7370761;19;20014;-45
2022/10/18 07:38:59;;;;;;;26.38;9.25;;;11.70;99.90;;;;;;7367549;19;20101;-45
2022/10/18 07:41:26;;;;;;;29.50;10.02;;;11.70;99.90;;;;;;7365366;19;20010;-49
2022/10/18 07:43:52;;;;;;;23.10;8.70;;;11.80;99.90;;;;;;7369408;19;20043;-47
2022/10/18 07:46:20;;;;;;;25.70;9.10;;;11.80;99.90;;;;;;7371710;19;20019;-48
2022/10/18 07:48:47;;;;;;;57.85;10.57;;;11.80;99.90;;;;;;7373340;19;20559;-47
2022/10/18 07:51:19;;;;;;;23.30;8.65;;;11.90;99.90;;;;;;7366949;19;20565;-48
2022/10/18 07:53:48;;;;;;;35.80;9.02;;;11.90;99.90;;;;;;7371302;19;20347;-48
2022/10/18 07:56:19;;;;;;;30.08;9.93;;;11.80;99.90;;;;;;7371764;19;20913;-47
2022/10/18 07:58:50;;;;;;;31.48;9.90;;;11.90;99.90;;;;;;7372823;19;20036;-45
2022/10/18 08:01:16;;;;;;;36.33;10.15;;;12.00;99.90;;;;;;7369220;19;20026;-47
2022/10/18 08:03:43;;;;;;;38.95;10.00;;;12.10;99.90;;;;;;7372337;19;20014;-44
2022/10/18 08:06:12;;;;;;;29.23;10.57;;;12.20;99.90;;;;;;7370290;19;20022;-49
2022/10/18 08:08:40;;;;;;;53.97;11.00;;;12.30;99.90;;;;;;7369041;19;20019;-49
2022/10/18 08:11:13;;;;;;;34.92;9.68;;;12.30;99.90;;;;;;7368981;19;20116;-46
2022/10/18 08:13:41;;;;;;;39.00;10.05;;;12.40;99.90;;;;;;7371177;19;20497;-46
2022/10/18 08:16:11;;;;;;;34.55;9.25;;;12.40;99.90;;;;;;7368652;19;20505;-46
2022/10/18 08:18:38;;;;;;;43.50;9.45;;;12.50;99.90;;;;;;7369642;19;20430;-45
2022/10/18 08:21:07;;;;;;;34.53;10.05;;;12.60;99.90;;;;;;7367846;19;20281;-47
2022/10/18 08:23:36;;;;;;;19.88;9.30;;;12.60;99.90;;;;;;7366204;19;20015;-46
2022/10/18 08:26:07;;;;;;;21.55;9.57;;;12.80;99.90;;;;;;7370613;19;20461;-44
2022/10/18 08:28:37;;;;;;;11.80;9.57;;;12.90;99.90;;;;;;7370272;19;20026;-45
2022/10/18 08:31:05;;;;;;;12.85;8.98;;;13.10;99.90;;;;;;7369281;19;20022;-45
2022/10/18 08:33:32;;;;;;;11.80;8.68;;;13.30;99.90;;;;;;7370141;19;20015;-45
2022/10/18 08:36:01;;;;;;;13.07;8.90;;;13.30;99.90;;;;;;7369628;19;20086;-47
2022/10/18 08:38:32;;;;;;;16.83;9.43;;;13.30;99.90;;;;;;7369794;19;20082;-45
2022/10/18 08:41:22;;;;;;;18.23;9.38;;;13.30;99.90;;;;;;7371332;19;20022;-45
2022/10/18 08:44:18;;;;;;;16.45;8.85;;;13.40;99.90;;;;;;7371700;19;20082;-45
2022/10/18 08:46:47;;;;;;;21.30;9.73;;;13.30;99.90;;;;;;7363338;19;20109;-47
2022/10/18 08:49:33;;;;;;;19.10;9.55;;;13.40;99.90;;;;;;7369383;19;20033;-46
2022/10/18 08:52:00;;;;;;;23.45;9.77;;;13.50;99.90;;;;;;7369329;19;20527;-45
2022/10/18 08:54:36;;;;;;;13.93;9.15;;;13.50;99.90;;;;;;7370232;19;20069;-46
2022/10/18 08:57:10;;;;;;;13.82;9.07;;;13.50;99.90;;;;;;7367670;19;20038;-45
2022/10/18 08:59:38;;;;;;;9.43;8.45;;;13.50;99.90;;;;;;7371831;19;20018;-49
2022/10/18 09:02:36;;;;;;;12.30;9.98;;;13.60;99.90;;;;;;7366657;19;20021;-44
2022/10/18 09:05:14;;;;;;;13.73;9.10;;;13.70;99.90;;;;;;7369563;19;20019;-50
2022/10/18 09:07:51;;;;;;;11.15;9.95;;;13.70;99.90;;;;;;7365528;19;20014;-47
2022/10/18 09:10:43;;;;;;;10.88;9.52;;;14.10;99.90;;;;;;7366018;19;20588;-46
2022/10/18 09:13:28;;;;;;;9.80;8.75;;;15.00;99.90;;;;;;7370211;19;20019;-50
2022/10/18 09:16:15;;;;;;;9.65;7.95;;;15.40;99.90;;;;;;7363919;19;20022;-48
2022/10/18 09:18:50;;;;;;;8.50;7.13;;;15.60;99.90;;;;;;7365535;19;20035;-48
2022/10/18 09:21:21;;;;;;;9.50;7.20;;;16.50;99.90;;;;;;7362849;19;20033;-46
2022/10/18 09:23:55;;;;;;;8.18;6.68;;;17.50;99.90;;;;;;7366046;19;20018;-46
2022/10/18 09:26:46;;;;;;;10.50;7.57;;;18.20;99.90;;;;;;7365953;19;20025;-47
2022/10/18 09:29:32;;;;;;;9.00;6.43;;;18.90;99.90;;;;;;7370033;19;20462;-45
2022/10/18 09:32:10;;;;;;;8.35;5.43;;;19.40;99.90;;;;;;7364411;19;20018;-47
2022/10/18 09:34:46;;;;;;;7.05;5.15;;;20.00;99.90;;;;;;7363094;19;20551;-46
2022/10/18 09:37:17;;;;;;;7.05;5.53;;;20.40;99.90;;;;;;7370208;19;20022;-46
2022/10/18 09:39:47;;;;;;;7.35;4.53;;;20.80;99.90;;;;;;7371615;19;20022;-49
2022/10/18 09:42:28;;;;;;;6.82;4.55;;;21.00;99.90;;;;;;7368006;19;20434;-46
2022/10/18 09:44:59;;;;;;;6.10;4.43;;;21.20;99.90;;;;;;7366069;19;20460;-48
2022/10/18 09:47:40;;;;;;;6.03;3.65;;;21.50;99.90;;;;;;7368938;19;20025;-50
2022/10/18 09:50:22;;;;;;;6.07;3.65;;;21.80;99.90;;;;;;7367939;19;20756;-47
2022/10/18 09:53:05;;;;;;;7.93;4.57;;;22.20;99.90;;;;;;7368817;19;20023;-46
2022/10/18 09:55:37;;;;;;;6.50;4.28;;;22.60;99.90;;;;;;7365057;19;20038;-50
2022/10/18 09:58:06;;;;;;;7.30;4.07;;;22.50;99.90;;;;;;7368610;19;20081;-46
2022/10/18 10:00:47;;;;;;;7.15;3.85;;;22.20;99.90;;;;;;7371680;19;20021;-47
2022/10/18 10:03:14;;;;;;;7.32;3.60;;;22.70;99.90;;;;;;7364407;19;20022;-51
2022/10/18 10:05:42;;;;;;;6.78;3.40;;;23.10;99.90;;;;;;7371053;19;20011;-48
2022/10/18 10:08:10;;;;;;;5.43;3.58;;;23.10;99.90;;;;;;7362495;19;20022;-49
2022/10/18 10:10:39;;;;;;;4.60;2.05;;;23.50;99.90;;;;;;7371906;19;20025;-50
2022/10/18 10:13:21;;;;;;;8.85;3.33;;;23.70;99.90;;;;;;7367055;19;20466;-47
2022/10/18 10:15:59;;;;;;;8.75;2.90;;;23.80;99.90;;;;;;7362978;19;20051;-48
2022/10/18 10:18:29;;;;;;;7.13;2.25;;;24.20;99.90;;;;;;7364693;19;20022;-47
2022/10/18 10:20:59;;;;;;;7.50;2.15;;;24.30;99.90;;;;;;7366094;19;20018;-47
2022/10/18 10:23:29;;;;;;;5.07;1.73;;;24.10;99.90;;;;;;7367572;19;20048;-50
2022/10/18 10:25:58;;;;;;;8.80;2.33;;;23.90;99.90;;;;;;7368074;19;20045;-46
2022/10/18 10:28:35;;;;;;;5.88;1.92;;;23.80;99.90;;;;;;7368703;19;20098;-47
2022/10/18 10:31:23;;;;;;;6.28;2.22;;;23.80;99.90;;;;;;7366148;19;20025;-47
2022/10/18 10:34:13;;;;;;;5.93;1.90;;;24.40;99.90;;;;;;7364177;19;20091;-51
2022/10/18 10:36:53;;;;;;;7.13;2.40;;;24.00;99.90;;;;;;7364629;19;20014;-51
2022/10/18 10:39:22;;;;;;;4.87;1.80;;;24.30;99.90;;;;;;7365455;19;20015;-51
2022/10/18 10:41:55;;;;;;;7.25;1.70;;;24.30;99.90;;;;;;7365315;19;20018;-52
2022/10/18 10:44:31;;;;;;;6.90;1.67;;;24.20;99.90;;;;;;7366465;19;20022;-51
2022/10/18 10:46:58;;;;;;;5.97;1.73;;;24.10;99.90;;;;;;7365863;19;20019;-52
2022/10/18 10:49:40;;;;;;;22.88;15.57;;;24.00;99.90;;;;;;7367269;19;20015;-48
2022/10/18 10:52:15;;;;;;;6.88;3.05;;;24.50;99.90;;;;;;7364695;19;21180;-50
2022/10/18 10:54:43;;;;;;;7.97;3.70;;;24.50;99.90;;;;;;7363558;19;20106;-50
2022/10/18 10:57:11;;;;;;;7.93;4.65;;;23.70;99.90;;;;;;7364158;19;20023;-50
2022/10/18 10:59:52;;;;;;;7.75;2.10;;;24.50;99.90;;;;;;7365756;19;20015;-49
2022/10/18 11:02:24;;;;;;;;;;;24.40;99.90;;;;;;7362603;19;20026;-50
2022/10/18 11:04:53;;;;;;;6.32;1.67;;;23.70;99.90;;;;;;7365461;19;19922;-50
2022/10/18 11:07:35;;;;;;;7.28;2.65;;;23.70;99.90;;;;;;7363436;19;20022;-56
2022/10/18 11:10:11;;;;;;;11.55;7.07;;;22.60;99.90;;;;;;7371838;19;20052;-48
2022/10/18 11:12:43;;;;;;;9.00;2.50;;;21.60;99.90;;;;;;7371294;19;20461;-50
2022/10/18 11:15:10;;;;;;;7.22;3.05;;;20.70;99.90;;;;;;7369468;19;20021;-48
2022/10/18 11:17:58;;;;;;;4.70;1.45;;;21.40;99.90;;;;;;7364971;19;20629;-50
2022/10/18 11:20:42;;;;;;;5.38;1.50;;;21.90;99.90;;;;;;7364310;19;20101;-50
2022/10/18 11:23:13;;;;;;;5.95;1.15;;;21.80;99.90;;;;;;7364916;19;20026;-49
2022/10/18 11:25:52;;;;;;;5.65;1.70;;;22.60;99.90;;;;;;7364734;19;20540;-51
2022/10/18 11:28:43;;;;;;;6.28;1.45;;;22.80;99.90;;;;;;7364545;19;20015;-51
2022/10/18 11:31:24;;;;;;;4.22;1.08;;;23.80;99.90;;;;;;7363647;19;20045;-48
2022/10/18 11:34:28;;;;;;;6.18;2.33;;;24.50;99.90;;;;;;7369298;19;20489;-47
2022/10/18 11:37:31;;;;;;;7.07;2.42;;;24.60;99.90;;;;;;7367264;19;20102;-52
2022/10/18 11:40:09;;;;;;;5.43;1.20;;;24.40;99.50;;;;;;7367520;19;20034;-52
2022/10/18 11:43:15;;;;;;;6.80;1.63;;;25.10;99.90;;;;;;7362503;19;20016;-47
2022/10/18 11:46:26;;;;;;;7.82;1.85;;;25.00;96.80;;;;;;7362116;19;20019;-49
2022/10/18 11:49:06;;;;;;;8.20;4.97;;;25.90;97.00;;;;;;7365544;19;20022;-47
2022/10/18 11:52:09;;;;;;;5.40;1.60;;;26.60;99.60;;;;;;7371635;19;20018;-51
2022/10/18 11:54:41;;;;;;;9.43;6.28;;;26.40;94.60;;;;;;7370731;19;20025;-48
2022/10/18 11:57:35;;;;;;;9.48;2.90;;;26.10;93.90;;;;;;7371775;19;20031;-50
2022/10/18 12:00:39;;;;;;;4.70;1.33;;;25.60;90.40;;;;;;7371626;19;20019;-50
2022/10/18 12:03:22;;;;;;;7.05;1.33;;;25.10;92.50;;;;;;7366341;19;20400;-51
2022/10/18 12:05:56;;;;;;;5.00;1.42;;;25.50;88.00;;;;;;7372744;19;20537;-51
2022/10/18 12:08:53;;;;;;;4.35;0.90;;;25.70;85.60;;;;;;7368550;19;21117;-50
2022/10/18 12:11:44;;;;;;;5.72;1.45;;;26.00;84.40;;;;;;7369247;19;20025;-49
2022/10/18 12:14:48;;;;;;;5.50;1.50;;;26.30;80.50;;;;;;7364793;19;20437;-46
2022/10/18 12:17:29;;;;;;;11.63;7.80;;;26.40;80.60;;;;;;7367235;19;20031;-48
2022/10/18 12:19:58;;;;;;;6.03;1.95;;;26.60;85.50;;;;;;7369769;19;20019;-48
2022/10/18 12:22:35;;;;;;;7.90;2.47;;;26.10;86.80;;;;;;7363822;19;20025;-48
2022/10/18 12:25:02;;;;;;;5.13;1.85;;;26.00;81.30;;;;;;7364239;19;20057;-45
2022/10/18 12:27:51;;;;;;;7.57;2.35;;;26.50;87.00;;;;;;7365714;19;20019;-49
2022/10/18 12:30:51;;;;;;;7.50;2.95;;;26.60;83.00;;;;;;7370449;19;20132;-50
2022/10/18 12:33:25;;;;;;;5.47;1.08;;;26.40;78.20;;;;;;7364754;19;20505;-46
2022/10/18 12:36:03;;;;;;;5.22;1.33;;;27.10;79.50;;;;;;7367832;19;20022;-46
2022/10/18 12:38:40;;;;;;;5.55;1.10;;;26.60;75.00;;;;;;7367315;19;20028;-47
2022/10/18 12:41:12;;;;;;;6.32;1.60;;;25.80;74.60;;;;;;7370743;19;20369;-46
2022/10/18 12:43:39;;;;;;;4.57;1.05;;;25.10;82.00;;;;;;7365035;19;20018;-46
2022/10/18 12:46:07;;;;;;;3.50;1.10;;;24.60;82.80;;;;;;7369208;19;20018;-45
2022/10/18 12:48:44;;;;;;;5.00;1.13;;;24.20;84.70;;;;;;7370582;19;20023;-46
2022/10/18 12:51:20;;;;;;;7.38;1.20;;;24.80;85.40;;;;;;7368359;19;20041;-44
2022/10/18 12:54:14;;;;;;;5.90;1.60;;;24.70;79.60;;;;;;7366630;19;20022;-44
2022/10/18 12:56:42;;;;;;;7.53;2.00;;;24.80;79.50;;;;;;7368719;19;20406;-47
2022/10/18 12:59:14;;;;;;;8.45;4.43;;;25.90;78.60;;;;;;7367884;19;20014;-45